TimeEST,TemperatureF,Dew PointF,Humidity,Sea Level PressureIn,VisibilityMPH,Wind Direction,Wind SpeedMPH,Gust SpeedMPH,PrecipitationIn,Events,Conditions,WindDirDegrees,DateUTC
12:53 AM,72.0,61.0,68,30.21,10.0,East,6.9,-,N/A,,Partly Cloudy,100,2013-01-27 05:53:00
1:53 AM,72.0,61.0,68,30.21,10.0,East,8.1,-,N/A,,Scattered Clouds,90,2013-01-27 06:53:00
2:53 AM,72.0,62.1,71,30.20,10.0,ENE,5.8,-,N/A,,Mostly Cloudy,70,2013-01-27 07:53:00
3:53 AM,71.1,61.0,70,30.20,10.0,East,6.9,-,N/A,,Clear,80,2013-01-27 08:53:00
4:53 AM,71.1,61.0,70,30.20,10.0,East,4.6,-,N/A,,Mostly Cloudy,80,2013-01-27 09:53:00
5:53 AM,71.1,61.0,70,30.20,10.0,ENE,8.1,-,N/A,,Clear,70,2013-01-27 10:53:00
6:53 AM,69.1,60.1,73,30.22,10.0,NE,9.2,-,N/A,,Scattered Clouds,50,2013-01-27 11:53:00
7:53 AM,73.0,61.0,66,30.24,10.0,NE,9.2,-,N/A,,Scattered Clouds,50,2013-01-27 12:53:00
8:53 AM,75.0,61.0,62,30.26,10.0,ENE,11.5,-,N/A,,Scattered Clouds,60,2013-01-27 13:53:00
9:53 AM,77.0,61.0,58,30.27,10.0,ENE,11.5,-,N/A,,Scattered Clouds,60,2013-01-27 14:53:00
10:53 AM,75.0,61.0,62,30.27,10.0,ENE,15.0,-,N/A,,Scattered Clouds,60,2013-01-27 15:53:00
11:53 AM,77.0,61.0,58,30.27,10.0,ENE,15.0,-,N/A,,Scattered Clouds,60,2013-01-27 16:53:00
12:53 PM,78.1,61.0,56,30.25,10.0,East,11.5,-,N/A,,Scattered Clouds,80,2013-01-27 17:53:00
1:53 PM,78.1,59.0,52,30.23,10.0,East,12.7,-,N/A,,Partly Cloudy,80,2013-01-27 18:53:00
2:53 PM,77.0,57.9,52,30.22,10.0,ENE,15.0,-,N/A,,Partly Cloudy,60,2013-01-27 19:53:00
3:53 PM,77.0,57.9,52,30.22,10.0,East,12.7,-,N/A,,Partly Cloudy,90,2013-01-27 20:53:00
4:53 PM,75.0,60.1,60,30.23,10.0,East,13.8,-,N/A,,Partly Cloudy,90,2013-01-27 21:53:00
5:53 PM,73.9,61.0,64,30.25,10.0,ENE,11.5,-,N/A,,Scattered Clouds,70,2013-01-27 22:53:00
6:53 PM,73.0,62.1,68,30.25,10.0,East,12.7,-,N/A,,Scattered Clouds,80,2013-01-27 23:53:00
7:53 PM,73.0,62.1,68,30.26,10.0,East,10.4,-,N/A,,Scattered Clouds,90,2013-01-28 00:53:00
8:53 PM,73.0,62.1,68,30.27,10.0,East,11.5,-,N/A,,Scattered Clouds,80,2013-01-28 01:53:00
9:53 PM,73.9,61.0,64,30.28,10.0,East,11.5,-,N/A,,Partly Cloudy,90,2013-01-28 02:53:00
10:53 PM,73.9,61.0,64,30.28,10.0,East,12.7,-,N/A,,Mostly Cloudy,100,2013-01-28 03:53:00
11:53 PM,73.0,64.0,73,30.26,10.0,East,13.8,-,N/A,,Mostly Cloudy,80,2013-01-28 04:53:00